Time;durP1;ratioP1;P1;durP2;ratioP2;P2;SDS_P1;SDS_P2;PMS_P1;PMS_P2;Temp;Humidity;BMP_temperature;BMP_pressure;BME280_temperature;BME280_humidity;BME280_pressure;Samples;Min_cycle;Max_cycle;Signal;HPM_P1;HPM_P2
2024/03/14 00:00:08;;;;;;;9.17;7.70;;;9.70;99.90;;;;;;5003338;28;20184;-59
2024/03/14 00:02:33;;;;;;;8.63;7.43;;;9.70;99.90;;;;;;5005407;28;20766;-58
2024/03/14 00:04:59;;;;;;;9.63;7.20;;;9.70;99.90;;;;;;5003760;28;20429;-59
2024/03/14 00:07:25;;;;;;;9.17;7.43;;;9.70;99.90;;;;;;5011804;28;20698;-58
2024/03/14 00:09:50;;;;;;;10.07;7.80;;;9.80;99.90;;;;;;5010858;28;20536;-59
2024/03/14 00:12:16;;;;;;;9.73;7.57;;;9.80;99.90;;;;;;5011742;28;20215;-58
2024/03/14 00:14:50;;;;;;;9.87;7.03;;;9.80;99.90;;;;;;5009193;28;20192;-59
2024/03/14 00:17:18;;;;;;;10.77;8.30;;;9.80;99.90;;;;;;5009950;28;20461;-57
2024/03/14 00:19:45;;;;;;;10.63;7.80;;;9.80;99.90;;;;;;5011608;28;20427;-60
2024/03/14 00:22:10;;;;;;;9.13;8.23;;;9.80;99.90;;;;;;5011086;28;20530;-58
2024/03/14 00:24:37;;;;;;;7.20;6.50;;;9.80;99.90;;;;;;5011427;28;20506;-60
2024/03/14 00:27:03;;;;;;;7.70;6.80;;;9.80;99.90;;;;;;5011198;28;20203;-58
2024/03/14 00:29:30;;;;;;;8.13;6.70;;;9.90;99.90;;;;;;5010693;28;20483;-58
2024/03/14 00:31:56;;;;;;;9.03;7.57;;;9.90;99.90;;;;;;5007818;28;20448;-58
2024/03/14 00:34:22;;;;;;;9.60;8.13;;;9.90;99.90;;;;;;5005691;28;20431;-59
2024/03/14 00:36:48;;;;;;;9.63;6.07;;;9.90;99.90;;;;;;5011463;28;20430;-58
2024/03/14 00:39:15;;;;;;;9.50;8.10;;;9.90;99.90;;;;;;5005661;28;20192;-58
2024/03/14 00:41:40;;;;;;;10.27;7.17;;;9.90;99.90;;;;;;5011248;28;20450;-59
2024/03/14 00:44:06;;;;;;;9.10;7.50;;;9.80;99.90;;;;;;5002753;28;20423;-58
2024/03/14 00:46:34;;;;;;;9.10;7.43;;;9.60;99.90;;;;;;5010644;28;20211;-58
2024/03/14 00:49:00;;;;;;;11.43;8.07;;;9.60;99.90;;;;;;5007932;28;20664;-58
2024/03/14 00:51:26;;;;;;;12.60;9.00;;;9.40;99.90;;;;;;5010379;28;20553;-59
2024/03/14 00:53:54;;;;;;;10.53;9.07;;;9.20;99.90;;;;;;5003113;28;20179;-58
2024/03/14 00:56:20;;;;;;;13.70;9.53;;;9.20;99.90;;;;;;5011170;28;20204;-58
2024/03/14 00:58:47;;;;;;;9.70;8.03;;;9.20;99.90;;;;;;5011279;28;20435;-58
2024/03/14 01:01:13;;;;;;;11.90;9.23;;;9.10;99.90;;;;;;5007998;28;20454;-57
2024/03/14 01:03:39;;;;;;;13.13;9.17;;;9.00;99.90;;;;;;5011637;28;20545;-57
2024/03/14 01:06:11;;;;;;;11.93;9.53;;;9.00;99.90;;;;;;5009626;28;20424;-57
2024/03/14 01:08:38;;;;;;;9.87;8.87;;;9.00;99.90;;;;;;5011538;28;20454;-57
2024/03/14 01:11:05;;;;;;;12.90;9.27;;;8.90;99.90;;;;;;5000994;28;20482;-55
2024/03/14 01:13:30;;;;;;;18.20;11.00;;;8.80;99.90;;;;;;5010926;28;20910;-58
2024/03/14 01:15:56;;;;;;;15.20;10.60;;;8.80;99.90;;;;;;5003578;28;20431;-58
2024/03/14 01:18:22;;;;;;;11.47;8.67;;;8.90;99.90;;;;;;5010695;28;20246;-58
2024/03/14 01:20:48;;;;;;;13.70;10.53;;;8.90;99.90;;;;;;5012721;28;20249;-57
2024/03/14 01:23:14;;;;;;;13.83;10.70;;;8.90;99.90;;;;;;5011380;28;20195;-59
2024/03/14 01:25:40;;;;;;;14.30;10.93;;;9.00;99.90;;;;;;4995372;28;20531;-58
2024/03/14 01:28:07;;;;;;;15.90;11.63;;;9.00;99.90;;;;;;5014733;28;20266;-58
2024/03/14 01:30:33;;;;;;;15.73;11.50;;;8.90;99.90;;;;;;5013978;28;20559;-56
2024/03/14 01:32:59;;;;;;;15.13;11.00;;;8.90;99.90;;;;;;5014928;28;20902;-55
2024/03/14 01:35:24;;;;;;;13.83;10.80;;;9.00;99.90;;;;;;5006324;28;20434;-58
2024/03/14 01:37:50;;;;;;;14.43;11.43;;;8.90;99.90;;;;;;5014852;28;20266;-58
2024/03/14 01:40:16;;;;;;;14.17;11.73;;;8.90;99.90;;;;;;5006864;28;20217;-57
2024/03/14 01:42:44;;;;;;;18.73;13.60;;;9.00;99.90;;;;;;5014666;28;20192;-58
2024/03/14 01:45:10;;;;;;;19.23;12.00;;;9.00;99.90;;;;;;5014049;28;20195;-57
2024/03/14 01:47:37;;;;;;;15.43;12.13;;;9.00;99.90;;;;;;5014633;28;20930;-58
2024/03/14 01:50:05;;;;;;;16.10;12.90;;;8.90;99.90;;;;;;5013632;28;20485;-58
2024/03/14 01:52:34;;;;;;;15.37;12.57;;;8.90;99.90;;;;;;5014202;28;20798;-56
2024/03/14 01:55:00;;;;;;;18.23;13.63;;;9.00;99.90;;;;;;5014522;28;20425;-60
2024/03/14 01:57:26;;;;;;;15.40;12.57;;;9.00;99.90;;;;;;5008306;28;20501;-57
2024/03/14 01:59:53;;;;;;;17.10;12.60;;;9.00;99.90;;;;;;5013746;28;20915;-57
2024/03/14 02:02:23;;;;;;;18.13;13.07;;;8.90;99.90;;;;;;5013883;28;20446;-57
2024/03/14 02:05:18;;;;;;;20.73;14.50;;;9.00;99.90;;;;;;5014453;28;20906;-56
2024/03/14 02:07:45;;;;;;;18.70;13.67;;;9.00;99.90;;;;;;5014342;28;20423;-56
2024/03/14 02:10:15;;;;;;;17.50;13.40;;;9.10;99.90;;;;;;5013742;28;20474;-57
2024/03/14 02:12:41;;;;;;;18.10;11.87;;;9.10;99.90;;;;;;5010286;28;20423;-56
2024/03/14 02:15:07;;;;;;;16.47;13.20;;;9.10;99.90;;;;;;5010727;28;20427;-57
2024/03/14 02:17:34;;;;;;;15.80;12.83;;;9.10;99.90;;;;;;5013033;28;20523;-58
2024/03/14 02:20:00;;;;;;;18.53;13.90;;;9.10;99.90;;;;;;5011378;28;20439;-58
2024/03/14 02:22:27;;;;;;;23.67;15.37;;;9.10;99.90;;;;;;5013429;28;20780;-59
2024/03/14 02:24:52;;;;;;;17.50;13.63;;;9.00;99.90;;;;;;5013886;28;20423;-57
2024/03/14 02:27:19;;;;;;;18.60;12.80;;;9.00;99.90;;;;;;5013495;28;20490;-55
2024/03/14 02:29:45;;;;;;;18.60;14.03;;;9.00;99.90;;;;;;5013649;28;20211;-59
2024/03/14 02:32:11;;;;;;;17.47;14.37;;;9.00;99.90;;;;;;5012535;28;20950;-59
2024/03/14 02:34:36;;;;;;;18.53;14.10;;;9.00;99.90;;;;;;5013803;28;20455;-58
2024/03/14 02:37:02;;;;;;;19.80;14.50;;;9.00;99.90;;;;;;5012287;28;20650;-58
2024/03/14 02:39:31;;;;;;;18.80;13.70;;;9.00;99.90;;;;;;5013311;28;20180;-58
2024/03/14 02:42:00;;;;;;;17.80;13.00;;;9.10;99.90;;;;;;5013288;28;20203;-57
2024/03/14 02:44:26;;;;;;;20.03;14.30;;;9.10;99.90;;;;;;5013625;28;20841;-58
2024/03/14 02:46:52;;;;;;;19.23;14.00;;;9.10;99.90;;;;;;5013438;28;20565;-58
2024/03/14 02:49:18;;;;;;;18.93;14.33;;;9.20;99.90;;;;;;5013406;28;20245;-56
2024/03/14 02:51:45;;;;;;;20.30;15.67;;;9.20;99.90;;;;;;5013160;28;20685;-58
2024/03/14 02:54:17;;;;;;;17.33;13.57;;;9.20;99.90;;;;;;5013329;28;20936;-56
2024/03/14 02:56:47;;;;;;;19.10;13.53;;;9.30;99.90;;;;;;5011972;28;20466;-56
2024/03/14 02:59:19;;;;;;;18.23;13.20;;;9.30;99.90;;;;;;5013311;28;20423;-56
2024/03/14 03:01:45;;;;;;;21.63;14.43;;;9.30;99.90;;;;;;5013287;28;20458;-58
2024/03/14 03:04:11;;;;;;;21.40;13.87;;;9.30;99.90;;;;;;5012920;28;20437;-56
2024/03/14 03:06:54;;;;;;;20.50;13.60;;;9.30;99.90;;;;;;5013092;28;20902;-59
2024/03/14 03:09:23;;;;;;;16.80;12.83;;;9.30;99.90;;;;;;5012836;28;20200;-58
2024/03/14 03:11:49;;;;;;;14.37;12.53;;;9.40;99.90;;;;;;5012855;28;21090;-57
2024/03/14 03:14:14;;;;;;;20.20;14.20;;;9.40;99.90;;;;;;5012978;28;20462;-59
2024/03/14 03:16:40;;;;;;;17.20;13.20;;;9.40;99.90;;;;;;5013173;28;20177;-57
2024/03/14 03:19:06;;;;;;;20.00;13.57;;;9.40;99.90;;;;;;5012805;28;20684;-59
2024/03/14 03:21:32;;;;;;;19.97;13.93;;;9.40;99.90;;;;;;5010611;28;20208;-58
2024/03/14 03:23:57;;;;;;;20.40;13.80;;;9.40;99.90;;;;;;5008070;28;20184;-59
2024/03/14 03:26:25;;;;;;;18.20;12.60;;;9.40;99.90;;;;;;5012352;28;20439;-57
2024/03/14 03:28:51;;;;;;;17.27;12.13;;;9.50;99.90;;;;;;5012846;28;20602;-58
2024/03/14 03:31:16;;;;;;;18.70;14.80;;;9.50;99.90;;;;;;5012332;28;20471;-58
2024/03/14 03:33:42;;;;;;;19.13;13.77;;;9.50;99.90;;;;;;5012765;28;20490;-58
2024/03/14 03:36:08;;;;;;;16.60;12.90;;;9.60;99.90;;;;;;5012186;28;20387;-59
2024/03/14 03:38:38;;;;;;;21.27;13.93;;;9.60;99.90;;;;;;5011076;28;20176;-57
2024/03/14 03:41:03;;;;;;;17.33;12.03;;;9.60;99.90;;;;;;5011959;28;20223;-56
2024/03/14 03:43:29;;;;;;;21.27;14.80;;;9.60;99.90;;;;;;5011643;28;20431;-55
2024/03/14 03:45:57;;;;;;;23.00;15.23;;;9.60;99.90;;;;;;5011267;28;20192;-57
2024/03/14 03:48:23;;;;;;;25.53;14.03;;;9.70;99.90;;;;;;5011947;28;20194;-58
2024/03/14 03:50:49;;;;;;;20.60;13.57;;;9.70;99.90;;;;;;5011882;28;20489;-59
2024/03/14 03:53:14;;;;;;;22.70;15.87;;;9.70;99.90;;;;;;5011391;28;20434;-58
2024/03/14 03:55:40;;;;;;;22.33;15.93;;;9.70;99.90;;;;;;5005053;28;20188;-58
2024/03/14 03:58:06;;;;;;;22.43;15.37;;;9.70;99.90;;;;;;5012477;28;20193;-56
2024/03/14 04:00:44;;;;;;;24.30;14.10;;;9.80;99.90;;;;;;5011788;28;20283;-58
2024/03/14 04:03:14;;;;;;;19.83;14.40;;;9.80;99.90;;;;;;5012174;28;20869;-60
2024/03/14 04:05:42;;;;;;;21.80;14.83;;;9.80;99.90;;;;;;5002521;28;20434;-59
2024/03/14 04:08:08;;;;;;;23.17;15.73;;;9.80;99.90;;;;;;5012192;28;20924;-59
2024/03/14 04:10:34;;;;;;;22.73;15.20;;;9.70;99.90;;;;;;5011635;28;20473;-60
2024/03/14 04:13:00;;;;;;;24.43;14.83;;;9.80;99.90;;;;;;5011857;28;20180;-59
2024/03/14 04:15:30;;;;;;;21.00;16.10;;;9.90;99.90;;;;;;5011123;28;20797;-59
2024/03/14 04:17:56;;;;;;;22.83;15.83;;;9.80;99.90;;;;;;5011809;28;20235;-58
2024/03/14 04:20:26;;;;;;;23.73;16.57;;;9.80;99.90;;;;;;5010053;28;20472;-59
2024/03/14 04:22:54;;;;;;;26.60;16.40;;;9.90;99.90;;;;;;5011774;28;20431;-59
2024/03/14 04:25:20;;;;;;;27.93;16.40;;;9.90;99.90;;;;;;5011062;28;20434;-56
2024/03/14 04:27:52;;;;;;;25.90;16.90;;;9.90;99.90;;;;;;5011117;28;20431;-58
2024/03/14 04:30:23;;;;;;;24.77;15.47;;;9.80;99.90;;;;;;5010875;28;20466;-58
2024/03/14 04:32:49;;;;;;;25.70;15.60;;;9.90;99.90;;;;;;5011787;28;20910;-60
2024/03/14 04:35:15;;;;;;;31.30;14.50;;;9.90;99.90;;;;;;5010948;28;20444;-58
2024/03/14 04:37:42;;;;;;;28.50;16.10;;;9.90;99.90;;;;;;5011732;28;20431;-58
2024/03/14 04:40:12;;;;;;;24.33;16.47;;;10.00;99.90;;;;;;5011727;28;20430;-59
2024/03/14 04:42:41;;;;;;;24.93;16.37;;;9.90;99.90;;;;;;5010015;28;20840;-60
2024/03/14 04:45:11;;;;;;;25.07;15.57;;;10.00;99.90;;;;;;5010430;28;20430;-58
2024/03/14 04:47:37;;;;;;;25.97;16.37;;;10.00;99.90;;;;;;5006596;28;20477;-58
2024/03/14 04:50:10;;;;;;;23.53;16.33;;;10.00;99.90;;;;;;5011272;28;20549;-58
2024/03/14 04:52:36;;;;;;;25.83;16.27;;;10.00;99.90;;;;;;5011522;28;20506;-58
2024/03/14 04:55:08;;;;;;;24.40;16.07;;;10.00;99.90;;;;;;5012053;28;20423;-58
2024/03/14 04:57:34;;;;;;;27.37;17.83;;;10.00;99.90;;;;;;5013877;28;20472;-57
2024/03/14 05:00:00;;;;;;;25.40;16.93;;;10.10;99.90;;;;;;5015408;28;20457;-59
2024/03/14 05:02:25;;;;;;;30.97;18.77;;;10.10;99.90;;;;;;5014834;28;20423;-58
2024/03/14 05:04:51;;;;;;;27.23;16.20;;;10.10;99.90;;;;;;5015161;28;20801;-58
2024/03/14 05:07:18;;;;;;;22.07;15.80;;;10.10;99.90;;;;;;5015184;28;20199;-58
2024/03/14 05:09:44;;;;;;;28.83;18.60;;;10.10;99.90;;;;;;5015245;28;20180;-58
2024/03/14 05:12:10;;;;;;;31.27;19.10;;;10.10;99.90;;;;;;5014775;28;20449;-58
2024/03/14 05:14:38;;;;;;;26.07;16.10;;;10.10;99.90;;;;;;5014834;28;20682;-57
2024/03/14 05:17:04;;;;;;;26.97;16.73;;;10.10;99.90;;;;;;5014946;28;20184;-58
2024/03/14 05:19:30;;;;;;;27.93;18.00;;;10.10;99.90;;;;;;5013364;28;20430;-57
2024/03/14 05:21:56;;;;;;;28.47;17.23;;;10.20;99.90;;;;;;5004502;28;20550;-58
2024/03/14 05:24:21;;;;;;;27.73;17.83;;;10.20;99.90;;;;;;5014163;28;20433;-58
2024/03/14 05:26:47;;;;;;;27.67;17.30;;;10.10;99.90;;;;;;5014641;28;20184;-58
2024/03/14 05:29:12;;;;;;;30.60;17.30;;;10.20;99.90;;;;;;5014850;28;20631;-58
2024/03/14 05:31:38;;;;;;;27.20;17.83;;;10.20;99.90;;;;;;5014067;28;20235;-59
2024/03/14 05:34:04;;;;;;;24.30;17.30;;;10.20;99.90;;;;;;5014567;28;20180;-58
2024/03/14 05:36:29;;;;;;;24.80;17.10;;;10.20;99.90;;;;;;5014559;28;20181;-59
2024/03/14 05:38:55;;;;;;;34.40;17.13;;;10.20;99.90;;;;;;5014170;28;20172;-58
2024/03/14 05:41:20;;;;;;;32.83;19.43;;;10.20;99.90;;;;;;5014210;28;20201;-58
2024/03/14 05:43:47;;;;;;;22.60;16.90;;;10.30;99.90;;;;;;5014770;28;20185;-59
2024/03/14 05:46:12;;;;;;;28.23;16.40;;;10.40;99.90;;;;;;5014757;28;20191;-57
2024/03/14 05:48:38;;;;;;;33.80;20.13;;;10.30;99.90;;;;;;5012512;28;20439;-59
2024/03/14 05:51:04;;;;;;;28.77;18.00;;;10.40;99.90;;;;;;5013993;28;20299;-60
2024/03/14 05:53:31;;;;;;;25.70;16.20;;;10.40;99.90;;;;;;5013987;28;20176;-58
2024/03/14 05:56:01;;;;;;;27.90;18.43;;;10.50;99.90;;;;;;5014508;28;20441;-60
2024/03/14 05:58:28;;;;;;;27.53;18.23;;;10.50;99.90;;;;;;5014669;28;20561;-58
2024/03/14 06:00:55;;;;;;;32.17;18.50;;;10.40;99.90;;;;;;5014104;28;20455;-58
2024/03/14 06:03:21;;;;;;;30.40;18.70;;;10.40;99.90;;;;;;5014176;28;20457;-58
2024/03/14 06:05:50;;;;;;;28.63;17.90;;;10.50;99.90;;;;;;5012789;28;20533;-55
2024/03/14 06:08:15;;;;;;;27.80;16.63;;;10.50;99.90;;;;;;5013642;28;20431;-57
2024/03/14 06:10:41;;;;;;;26.90;16.80;;;10.60;99.90;;;;;;5001674;28;20478;-57
2024/03/14 06:13:06;;;;;;;27.70;17.60;;;10.60;99.90;;;;;;5009454;28;20176;-56
2024/03/14 06:15:35;;;;;;;29.43;17.27;;;10.50;99.90;;;;;;5013294;28;20244;-58
2024/03/14 06:18:02;;;;;;;22.70;16.17;;;10.50;99.90;;;;;;5014164;28;20263;-54
2024/03/14 06:20:27;;;;;;;25.60;18.20;;;10.50;99.90;;;;;;5013540;28;20439;-57
2024/03/14 06:22:53;;;;;;;30.00;17.50;;;10.60;99.90;;;;;;5011536;28;20435;-55
2024/03/14 06:25:19;;;;;;;25.90;16.87;;;10.50;99.90;;;;;;5013344;28;20184;-54
2024/03/14 06:27:45;;;;;;;27.27;16.43;;;10.50;99.90;;;;;;5013502;28;20196;-56
2024/03/14 06:30:11;;;;;;;25.97;16.57;;;10.50;99.90;;;;;;5013477;28;20204;-56
2024/03/14 06:32:37;;;;;;;27.43;15.63;;;10.40;99.90;;;;;;5013201;28;20323;-57
2024/03/14 06:35:05;;;;;;;30.70;16.50;;;10.40;99.90;;;;;;5013596;28;20427;-56
2024/03/14 06:37:30;;;;;;;33.10;18.83;;;10.50;99.90;;;;;;5013245;28;20438;-56
2024/03/14 06:39:56;;;;;;;27.27;16.70;;;10.60;99.90;;;;;;5010803;28;20836;-57
2024/03/14 06:42:23;;;;;;;25.93;15.50;;;10.70;99.90;;;;;;5012939;28;20176;-60
2024/03/14 06:44:49;;;;;;;32.60;17.73;;;10.70;99.90;;;;;;5006279;28;20267;-60
2024/03/14 06:47:14;;;;;;;26.40;17.40;;;10.60;99.90;;;;;;5013206;28;20554;-56
2024/03/14 06:49:43;;;;;;;28.30;17.43;;;10.60;99.90;;;;;;5012956;28;20553;-67
2024/03/14 06:52:09;;;;;;;26.10;16.27;;;10.70;99.90;;;;;;5012896;28;20238;-65
2024/03/14 06:54:35;;;;;;;25.70;16.63;;;10.70;99.90;;;;;;5013091;28;20465;-64
2024/03/14 06:57:01;;;;;;;28.87;17.57;;;10.80;99.90;;;;;;5011529;28;20192;-62
2024/03/14 06:59:27;;;;;;;31.93;17.97;;;10.80;99.90;;;;;;5013052;28;20419;-62
2024/03/14 07:01:54;;;;;;;31.13;17.03;;;10.90;99.90;;;;;;5005026;28;20208;-62
2024/03/14 07:04:20;;;;;;;32.30;17.50;;;11.00;99.90;;;;;;4995309;28;20438;-56
2024/03/14 07:06:46;;;;;;;30.53;17.97;;;11.00;99.90;;;;;;5012907;28;20776;-58
2024/03/14 07:09:17;;;;;;;31.80;18.30;;;11.00;99.90;;;;;;5013192;28;20434;-52
2024/03/14 07:11:47;;;;;;;26.87;17.70;;;11.00;99.90;;;;;;5012204;28;20455;-58
2024/03/14 07:14:12;;;;;;;34.03;19.57;;;11.10;99.90;;;;;;5010491;28;20431;-54
2024/03/14 07:16:42;;;;;;;23.00;15.77;;;11.20;99.90;;;;;;5012203;28;20625;-56
2024/03/14 07:19:07;;;;;;;30.90;18.73;;;11.30;99.90;;;;;;5011941;28;20553;-56
2024/03/14 07:21:33;;;;;;;34.93;18.93;;;11.30;99.90;;;;;;5012553;28;20444;-57
2024/03/14 07:23:59;;;;;;;26.30;16.93;;;11.30;99.90;;;;;;5011138;28;20184;-55
2024/03/14 07:26:32;;;;;;;35.50;20.43;;;11.30;99.90;;;;;;5012501;28;20196;-59
2024/03/14 07:28:58;;;;;;;30.63;18.47;;;11.20;99.90;;;;;;5011960;28;20415;-57
2024/03/14 07:31:28;;;;;;;28.13;17.13;;;11.30;99.90;;;;;;5011901;28;20471;-56
2024/03/14 07:33:54;;;;;;;30.50;18.80;;;11.30;99.90;;;;;;5012727;28;20437;-56
2024/03/14 07:36:23;;;;;;;26.30;18.63;;;11.40;99.90;;;;;;5011097;28;20945;-55
2024/03/14 07:38:49;;;;;;;29.57;16.10;;;11.30;99.90;;;;;;5011998;28;20426;-59
2024/03/14 07:41:22;;;;;;;24.00;16.90;;;11.40;99.90;;;;;;5011984;28;20439;-56
2024/03/14 07:43:48;;;;;;;38.23;18.77;;;11.30;99.90;;;;;;5007589;28;20423;-63
2024/03/14 07:46:14;;;;;;;25.50;16.20;;;11.30;99.90;;;;;;5012467;28;20458;-57
2024/03/14 07:48:44;;;;;;;25.00;17.30;;;11.40;99.90;;;;;;5012054;28;20477;-54
2024/03/14 07:51:10;;;;;;;27.43;18.83;;;11.50;99.90;;;;;;5011961;28;20212;-52
2024/03/14 07:53:35;;;;;;;26.90;16.77;;;11.40;99.90;;;;;;5011365;28;20791;-57
2024/03/14 07:56:01;;;;;;;28.90;17.03;;;11.50;99.90;;;;;;5004292;28;20176;-55
2024/03/14 07:58:27;;;;;;;25.77;16.90;;;11.60;99.90;;;;;;5012159;28;20187;-55
2024/03/14 08:00:53;;;;;;;26.03;17.93;;;11.50;99.90;;;;;;5012217;28;20223;-63
2024/03/14 08:03:19;;;;;;;31.20;19.23;;;11.40;99.90;;;;;;5013162;28;20419;-57
2024/03/14 08:05:50;;;;;;;25.50;16.83;;;11.50;99.90;;;;;;5012084;28;20279;-56
2024/03/14 08:08:19;;;;;;;27.03;16.10;;;11.50;99.90;;;;;;5012335;28;20442;-54
2024/03/14 08:10:45;;;;;;;24.70;17.03;;;11.50;99.90;;;;;;5006674;28;20517;-58
2024/03/14 08:13:17;;;;;;;26.87;16.20;;;11.60;99.90;;;;;;5000154;28;20937;-53
2024/03/14 08:15:52;;;;;;;24.40;15.00;;;11.50;99.90;;;;;;4983622;28;20446;-53
2024/03/14 08:18:20;;;;;;;27.33;15.93;;;11.60;99.90;;;;;;5009768;28;20425;-64
2024/03/14 08:20:47;;;;;;;26.17;15.97;;;11.60;99.90;;;;;;5011669;28;20967;-61
2024/03/14 08:23:13;;;;;;;34.10;17.83;;;11.60;99.90;;;;;;5011480;28;20430;-56
2024/03/14 08:25:41;;;;;;;26.70;15.43;;;11.70;99.90;;;;;;5004615;28;20431;-55
2024/03/14 08:28:06;;;;;;;25.47;17.20;;;11.70;99.90;;;;;;5009397;28;20431;-57
2024/03/14 08:30:32;;;;;;;28.03;18.17;;;11.70;99.90;;;;;;5010371;28;20477;-57
2024/03/14 08:32:58;;;;;;;23.20;14.13;;;11.80;99.90;;;;;;5007910;28;20176;-63
2024/03/14 08:35:23;;;;;;;27.73;14.70;;;11.80;99.90;;;;;;5033353;23;20495;-62
2024/03/14 08:37:49;;;;;;;26.33;15.70;;;11.90;99.90;;;;;;5011378;28;20264;-62
2024/03/14 08:40:15;;;;;;;27.93;14.23;;;12.00;99.90;;;;;;5011917;28;20184;-61
2024/03/14 08:42:41;;;;;;;20.93;14.47;;;12.20;99.90;;;;;;5010197;28;20581;-63
2024/03/14 08:45:09;;;;;;;25.93;14.47;;;12.30;99.90;;;;;;5007188;28;20225;-62
2024/03/14 08:47:36;;;;;;;24.53;17.07;;;12.40;99.90;;;;;;5011564;28;20423;-63
2024/03/14 08:50:04;;;;;;;24.53;16.00;;;12.40;99.90;;;;;;5011537;28;20522;-63
2024/03/14 08:52:31;;;;;;;25.70;16.53;;;12.40;99.90;;;;;;5011456;28;20502;-62
2024/03/14 08:54:58;;;;;;;27.60;15.30;;;12.50;99.90;;;;;;5011452;28;20475;-63
2024/03/14 08:57:25;;;;;;;21.90;15.53;;;12.60;99.90;;;;;;5011648;28;20875;-61
2024/03/14 08:59:53;;;;;;;28.27;16.00;;;12.80;99.90;;;;;;5007139;28;21061;-61
2024/03/14 09:02:23;;;;;;;22.73;15.70;;;12.90;99.90;;;;;;5011212;28;20419;-62
2024/03/14 09:04:50;;;;;;;20.77;13.73;;;12.90;99.90;;;;;;5011142;28;20455;-61
2024/03/14 09:07:16;;;;;;;23.87;15.40;;;12.90;99.90;;;;;;5011384;28;20426;-62
2024/03/14 09:09:44;;;;;;;19.97;12.97;;;13.00;99.90;;;;;;5010907;28;20428;-62
2024/03/14 09:12:13;;;;;;;18.33;13.80;;;13.10;99.90;;;;;;5011047;28;20536;-61
2024/03/14 09:14:41;;;;;;;19.00;13.00;;;13.10;99.90;;;;;;5010907;28;20480;-62
2024/03/14 09:17:07;;;;;;;18.87;13.13;;;12.90;99.90;;;;;;5011318;28;20454;-62
2024/03/14 09:19:33;;;;;;;23.27;15.07;;;13.20;99.90;;;;;;5010072;28;20423;-62
2024/03/14 09:21:58;;;;;;;20.50;14.93;;;13.30;99.90;;;;;;5007679;28;20432;-61
2024/03/14 09:24:25;;;;;;;19.90;12.73;;;13.50;99.90;;;;;;5011053;28;20201;-62
2024/03/14 09:26:51;;;;;;;19.90;12.60;;;13.50;99.90;;;;;;5011058;28;20193;-63
2024/03/14 09:29:17;;;;;;;19.93;12.60;;;13.70;99.90;;;;;;5011290;28;20431;-63
2024/03/14 09:31:46;;;;;;;20.63;13.87;;;13.80;99.90;;;;;;5010560;28;20214;-62
2024/03/14 09:34:12;;;;;;;22.83;14.60;;;13.90;99.90;;;;;;5010780;28;20489;-63
2024/03/14 09:36:38;;;;;;;17.30;13.70;;;13.80;99.90;;;;;;5010551;28;20465;-62
2024/03/14 09:39:15;;;;;;;17.17;12.80;;;14.00;99.90;;;;;;5011260;28;20223;-62
2024/03/14 09:41:41;;;;;;;18.17;12.73;;;14.00;99.90;;;;;;5012340;28;20477;-60
2024/03/14 09:44:06;;;;;;;17.13;12.80;;;14.30;99.90;;;;;;5014864;28;20443;-62
2024/03/14 09:46:34;;;;;;;18.00;12.50;;;14.60;99.90;;;;;;5014473;28;20664;-62
2024/03/14 09:49:01;;;;;;;16.63;13.07;;;14.70;99.90;;;;;;5014110;28;20214;-61
2024/03/14 09:51:27;;;;;;;17.40;13.60;;;14.60;99.90;;;;;;5014018;28;20470;-63
2024/03/14 09:53:54;;;;;;;15.57;10.90;;;14.50;99.90;;;;;;5013761;28;20446;-63
2024/03/14 09:56:20;;;;;;;17.90;13.03;;;14.40;99.90;;;;;;5014182;28;20415;-62
2024/03/14 09:58:46;;;;;;;18.33;11.90;;;14.50;99.90;;;;;;5014185;28;20417;-63
2024/03/14 10:01:12;;;;;;;14.97;11.13;;;14.70;99.90;;;;;;5014217;28;20492;-64
2024/03/14 10:03:41;;;;;;;18.17;11.73;;;14.90;99.90;;;;;;5013815;28;20195;-61
2024/03/14 10:06:18;;;;;;;16.50;12.23;;;14.80;99.90;;;;;;5013938;28;20405;-63
2024/03/14 10:08:50;;;;;;;16.23;12.07;;;15.00;99.90;;;;;;5013704;28;20418;-62
2024/03/14 10:11:18;;;;;;;13.27;10.30;;;15.10;99.90;;;;;;5013983;28;20458;-63
2024/03/14 10:13:46;;;;;;;15.43;12.60;;;15.00;99.90;;;;;;5013722;28;20442;-60
2024/03/14 10:16:12;;;;;;;16.83;12.63;;;14.80;99.90;;;;;;5013747;28;20907;-60
2024/03/14 10:18:39;;;;;;;15.23;10.67;;;14.60;99.90;;;;;;5010730;28;20445;-61
2024/03/14 10:21:05;;;;;;;17.17;12.17;;;14.90;99.90;;;;;;5013665;28;20547;-63
2024/03/14 10:23:32;;;;;;;14.33;12.03;;;15.00;99.90;;;;;;5013654;28;20434;-63
2024/03/14 10:25:58;;;;;;;14.30;10.33;;;15.00;99.90;;;;;;5013213;28;20956;-60
2024/03/14 10:28:28;;;;;;;16.00;9.70;;;15.00;99.90;;;;;;5013620;28;20834;-61
2024/03/14 10:31:04;;;;;;;12.97;9.77;;;15.10;99.90;;;;;;5013038;28;20826;-60
2024/03/14 10:33:30;;;;;;;15.90;10.00;;;15.00;99.90;;;;;;5013458;28;20423;-63
2024/03/14 10:35:58;;;;;;;13.43;10.17;;;14.80;99.90;;;;;;5013465;28;20425;-62
2024/03/14 10:38:25;;;;;;;14.80;11.53;;;14.70;99.90;;;;;;5009562;28;20417;-62
2024/03/14 10:40:57;;;;;;;16.03;10.10;;;15.00;99.90;;;;;;5013402;28;20860;-62
2024/03/14 10:43:30;;;;;;;16.10;9.80;;;14.90;99.90;;;;;;5013041;28;20912;-62
2024/03/14 10:45:56;;;;;;;10.30;9.00;;;14.90;99.90;;;;;;5002827;28;20923;-63
2024/03/14 10:48:23;;;;;;;16.30;9.77;;;15.00;99.90;;;;;;5010252;28;20440;-63
2024/03/14 10:50:56;;;;;;;12.30;9.63;;;14.90;99.90;;;;;;5012325;28;20468;-64
2024/03/14 10:53:22;;;;;;;12.90;9.30;;;15.10;99.90;;;;;;5011998;28;20421;-64
2024/03/14 10:55:52;;;;;;;13.00;9.30;;;15.00;99.90;;;;;;5010739;28;20421;-63
2024/03/14 10:58:20;;;;;;;13.10;9.00;;;14.90;99.90;;;;;;5013251;28;20435;-62
2024/03/14 11:00:50;;;;;;;11.53;8.30;;;15.00;99.90;;;;;;5012961;28;20464;-62
2024/03/14 11:03:18;;;;;;;8.70;7.40;;;15.20;99.90;;;;;;5013775;28;20444;-63
2024/03/14 11:05:50;;;;;;;10.90;9.00;;;15.50;99.90;;;;;;5011910;28;20454;-62
2024/03/14 11:08:18;;;;;;;10.90;8.10;;;15.70;99.90;;;;;;5013096;28;20908;-60
2024/03/14 11:10:48;;;;;;;8.77;7.87;;;15.50;99.90;;;;;;5006088;28;20560;-62
2024/03/14 11:13:27;;;;;;;8.63;7.07;;;15.60;99.90;;;;;;5012993;28;20832;-62
2024/03/14 11:15:56;;;;;;;10.90;7.33;;;15.50;99.90;;;;;;5012103;28;20467;-62
2024/03/14 11:18:32;;;;;;;6.40;5.07;;;15.30;99.90;;;;;;5012773;28;20433;-64
2024/03/14 11:20:59;;;;;;;10.90;7.37;;;15.70;99.90;;;;;;5011524;28;20938;-64
2024/03/14 11:23:28;;;;;;;8.60;7.20;;;15.90;99.90;;;;;;5011622;28;20528;-62
2024/03/14 11:25:58;;;;;;;8.40;7.10;;;15.80;99.90;;;;;;5009357;28;20426;-61
2024/03/14 11:28:27;;;;;;;8.23;6.47;;;16.00;99.90;;;;;;5012188;28;20467;-63
2024/03/14 11:30:56;;;;;;;10.40;6.93;;;15.90;99.90;;;;;;5008639;28;20459;-61
2024/03/14 11:33:26;;;;;;;152.07;99.63;;;16.20;99.90;;;;;;5008787;28;20705;-63
2024/03/14 11:35:56;;;;;;;10.93;8.20;;;16.40;99.90;;;;;;5011851;28;20436;-63
2024/03/14 11:38:28;;;;;;;10.70;7.93;;;16.40;99.90;;;;;;5012454;28;21088;-63
2024/03/14 11:40:58;;;;;;;8.93;8.03;;;16.20;99.90;;;;;;5011373;28;20784;-61
2024/03/14 11:43:26;;;;;;;9.70;7.00;;;15.60;99.90;;;;;;5012018;28;20909;-64
2024/03/14 11:46:04;;;;;;;10.60;8.43;;;15.80;99.90;;;;;;5011409;28;20426;-62
2024/03/14 11:48:30;;;;;;;10.17;7.90;;;15.80;99.90;;;;;;5006913;28;20431;-62
2024/03/14 11:50:59;;;;;;;9.93;6.97;;;16.00;99.90;;;;;;5011504;28;20502;-63
2024/03/14 11:53:25;;;;;;;8.40;6.70;;;15.90;99.90;;;;;;5011644;28;20419;-61
2024/03/14 11:55:55;;;;;;;9.43;7.00;;;15.90;99.90;;;;;;5011275;28;20799;-63
2024/03/14 11:58:21;;;;;;;7.33;6.43;;;15.80;99.90;;;;;;5011414;28;20423;-63
2024/03/14 12:00:48;;;;;;;11.37;7.67;;;16.20;99.90;;;;;;5011064;28;20431;-63
2024/03/14 12:03:15;;;;;;;8.33;6.43;;;16.40;99.90;;;;;;5010982;28;20792;-63
2024/03/14 12:05:47;;;;;;;9.23;6.80;;;16.30;99.90;;;;;;5008028;28;20481;-64
2024/03/14 12:08:18;;;;;;;8.30;5.77;;;16.20;99.90;;;;;;5011504;28;20445;-62
2024/03/14 12:10:44;;;;;;;8.27;7.07;;;16.20;99.90;;;;;;5010920;28;20825;-62
2024/03/14 12:13:12;;;;;;;9.20;6.43;;;16.40;99.90;;;;;;5011304;28;20432;-62
2024/03/14 12:15:38;;;;;;;7.90;7.00;;;16.60;99.90;;;;;;5010973;28;20803;-61
2024/03/14 12:18:04;;;;;;;8.47;6.67;;;16.50;99.90;;;;;;5011214;28;20421;-65
2024/03/14 12:20:32;;;;;;;7.73;6.50;;;16.40;99.90;;;;;;5010996;28;20189;-63
2024/03/14 12:22:58;;;;;;;11.60;6.90;;;16.30;99.90;;;;;;5010145;28;20469;-62
2024/03/14 12:25:26;;;;;;;7.30;5.33;;;16.30;99.90;;;;;;5010852;28;20930;-63
2024/03/14 12:27:52;;;;;;;7.43;6.60;;;16.40;99.90;;;;;;5010724;28;20268;-62
2024/03/14 12:30:20;;;;;;;9.30;7.03;;;16.10;99.90;;;;;;5011299;28;20553;-63
2024/03/14 12:32:54;;;;;;;6.20;5.03;;;15.90;99.90;;;;;;5010539;28;20426;-63
2024/03/14 12:35:21;;;;;;;8.33;5.73;;;15.90;99.90;;;;;;5006762;28;20457;-64